createdAt,value
2023-05-19T00:00:21.297Z,5.60
2023-05-19T00:01:17.315Z,6.50
2023-05-19T00:01:49.979Z,5.60
2023-05-19T00:02:25.551Z,6.00
2023-05-19T00:02:59.989Z,5.80
2023-05-19T00:03:33.423Z,6.30
2023-05-19T00:04:06.584Z,5.70
2023-05-19T00:04:40.275Z,5.80
2023-05-19T00:05:14.674Z,5.60
2023-05-19T00:05:48.454Z,5.50
2023-05-19T00:06:26.401Z,5.40
2023-05-19T00:06:59.948Z,5.90
2023-05-19T00:07:33.334Z,6.20
2023-05-19T00:08:06.541Z,5.50
2023-05-19T00:08:38.717Z,6.10
2023-05-19T00:09:12.322Z,5.10
2023-05-19T00:09:44.621Z,5.80
2023-05-19T00:10:17.786Z,6.20
2023-05-19T00:10:50.258Z,5.80
2023-05-19T00:11:22.621Z,5.30
2023-05-19T00:11:56.326Z,5.80
2023-05-19T00:12:28.585Z,5.90
2023-05-19T00:13:01.132Z,6.00
2023-05-19T00:13:33.588Z,5.50
2023-05-19T00:14:08.929Z,5.50
2023-05-19T00:14:41.429Z,5.30
2023-05-19T00:15:14.544Z,5.20
2023-05-19T00:15:46.817Z,5.40
2023-05-19T00:16:19.010Z,5.10
2023-05-19T00:16:51.521Z,5.60
2023-05-19T00:17:24.440Z,5.10
2023-05-19T00:17:56.601Z,5.50
2023-05-19T00:18:29.424Z,5.70
2023-05-19T00:19:04.358Z,5.80
2023-05-19T00:19:37.717Z,6.10
2023-05-19T00:20:11.808Z,6.40
2023-05-19T00:20:43.658Z,6.20
2023-05-19T00:21:16.637Z,5.30
2023-05-19T00:21:48.536Z,5.30
2023-05-19T00:22:20.746Z,5.00
2023-05-19T00:22:52.688Z,5.80
2023-05-19T00:23:24.960Z,6.00
2023-05-19T00:23:57.632Z,6.10
2023-05-19T00:24:29.677Z,5.60
2023-05-19T00:25:01.728Z,5.40
2023-05-19T00:25:33.662Z,5.90
2023-05-19T00:26:05.923Z,5.80
2023-05-19T00:26:37.904Z,5.80
2023-05-19T00:27:10.140Z,5.70
2023-05-19T00:27:42.084Z,6.00
2023-05-19T00:28:14.089Z,5.90
2023-05-19T00:28:46.083Z,5.80
2023-05-19T00:29:18.296Z,5.60
2023-05-19T00:29:50.293Z,5.70
2023-05-19T00:30:22.665Z,5.80
2023-05-19T00:30:55.741Z,6.00
2023-05-19T00:31:28.631Z,5.70
2023-05-19T00:32:00.930Z,6.00
2023-05-19T00:32:33.049Z,6.00
2023-05-19T00:33:04.987Z,5.80
2023-05-19T00:33:37.330Z,6.10
2023-05-19T00:34:09.461Z,6.20
2023-05-19T00:34:42.143Z,6.50
2023-05-19T00:35:14.496Z,5.90
2023-05-19T00:35:46.439Z,5.70
2023-05-19T00:36:18.385Z,5.80
2023-05-19T00:36:50.856Z,5.70
2023-05-19T00:37:23.116Z,5.90
2023-05-19T00:37:55.258Z,5.50
2023-05-19T00:38:27.196Z,5.10
2023-05-19T00:38:59.051Z,5.20
2023-05-19T00:39:31.308Z,5.80
2023-05-19T00:40:05.825Z,5.80
2023-05-19T00:40:37.873Z,6.00
2023-05-19T00:41:10.638Z,5.60
2023-05-19T00:41:42.607Z,5.20
2023-05-19T00:42:14.544Z,5.60
2023-05-19T00:42:46.524Z,5.70
2023-05-19T00:43:18.437Z,5.40
2023-05-19T00:43:50.799Z,5.50
2023-05-19T00:44:22.846Z,5.70
2023-05-19T00:44:55.114Z,6.30
2023-05-19T00:45:27.564Z,5.50
2023-05-19T00:46:00.354Z,5.70
2023-05-19T00:46:32.346Z,6.90
2023-05-19T00:47:04.560Z,5.90
2023-05-19T00:47:36.959Z,5.70
2023-05-19T00:48:09.275Z,5.70
2023-05-19T00:48:44.383Z,5.70
2023-05-19T00:49:16.584Z,5.80
2023-05-19T00:49:48.599Z,5.90
2023-05-19T00:50:21.062Z,6.00
2023-05-19T00:50:57.516Z,6.00
2023-05-19T00:51:30.890Z,5.30
2023-05-19T00:52:05.762Z,6.40
2023-05-19T00:52:37.753Z,6.20
2023-05-19T00:53:09.900Z,6.00
2023-05-19T00:53:43.501Z,6.00
2023-05-19T00:54:15.860Z,6.40
2023-05-19T00:54:51.127Z,6.40
2023-05-19T00:55:29.075Z,6.20
2023-05-19T00:56:02.574Z,6.10
2023-05-19T00:56:35.351Z,5.90
2023-05-19T00:57:07.476Z,6.00
2023-05-19T00:57:39.654Z,6.30
2023-05-19T00:58:12.468Z,6.20
2023-05-19T00:58:45.773Z,6.40
2023-05-19T00:59:17.860Z,6.40
2023-05-19T00:59:50.101Z,6.10
2023-05-19T01:00:22.822Z,5.90
2023-05-19T01:01:03.168Z,6.10
2023-05-19T01:01:36.341Z,5.90
2023-05-19T01:02:08.536Z,6.20
2023-05-19T01:02:41.181Z,5.80
2023-05-19T01:03:14.772Z,6.20
2023-05-19T01:03:48.260Z,6.10
2023-05-19T01:04:21.453Z,6.30
2023-05-19T01:04:55.156Z,6.20
2023-05-19T01:05:27.206Z,6.90
2023-05-19T01:06:01.409Z,6.10
2023-05-19T01:06:34.274Z,5.90
2023-05-19T01:07:06.743Z,6.60
2023-05-19T01:07:41.049Z,6.10
2023-05-19T01:08:13.198Z,6.00
2023-05-19T01:08:46.192Z,5.80
2023-05-19T01:09:18.120Z,5.70
2023-05-19T01:09:50.779Z,6.50
2023-05-19T01:10:22.847Z,6.30
2023-05-19T01:10:55.093Z,6.00
2023-05-19T01:11:27.322Z,6.30
2023-05-19T01:12:01.255Z,6.40
2023-05-19T01:12:34.219Z,6.70
2023-05-19T01:13:07.624Z,6.40
2023-05-19T01:13:41.920Z,6.00
2023-05-19T01:14:15.412Z,6.20
2023-05-19T01:14:47.543Z,5.90
2023-05-19T01:15:19.391Z,6.10
2023-05-19T01:16:02.197Z,6.20
2023-05-19T01:16:39.841Z,5.70
2023-05-19T01:17:27.298Z,6.30
2023-05-19T01:18:11.663Z,6.10
2023-05-19T01:18:56.727Z,6.50
2023-05-19T01:20:01.812Z,6.40
2023-05-19T01:20:52.291Z,5.70
2023-05-19T01:21:55.478Z,6.00
2023-05-19T01:22:45.958Z,6.80
2023-05-19T01:23:32.372Z,6.10
2023-05-19T01:24:22.388Z,6.10
2023-05-19T01:25:19.987Z,6.90
2023-05-19T01:26:14.047Z,5.90
2023-05-19T01:27:13.372Z,6.20
2023-05-19T01:27:48.478Z,6.40
2023-05-19T01:28:44.674Z,6.70
2023-05-19T01:29:42.182Z,6.70
2023-05-19T01:30:22.063Z,5.90
2023-05-19T01:30:57.898Z,6.60
2023-05-19T01:31:30.080Z,6.80
2023-05-19T01:32:04.520Z,6.10
2023-05-19T01:32:40.249Z,6.50
2023-05-19T01:33:14.866Z,6.40
2023-05-19T01:33:48.879Z,6.20
2023-05-19T01:34:23.417Z,6.40
2023-05-19T01:34:57.286Z,6.50
2023-05-19T01:35:30.501Z,6.20
2023-05-19T01:36:03.874Z,6.10
2023-05-19T01:36:37.700Z,6.40
2023-05-19T01:37:11.270Z,6.60
2023-05-19T01:37:45.059Z,6.00
2023-05-19T01:38:19.051Z,6.90
2023-05-19T01:38:53.734Z,5.80
2023-05-19T01:39:26.223Z,5.90
2023-05-19T01:39:58.390Z,6.80
2023-05-19T01:40:32.216Z,5.90
2023-05-19T01:41:06.572Z,7.00
2023-05-19T01:41:41.599Z,6.20
2023-05-19T01:42:14.992Z,6.60
2023-05-19T01:42:48.483Z,6.40
2023-05-19T01:43:23.520Z,7.00
2023-05-19T01:43:56.774Z,6.20
2023-05-19T01:44:29.229Z,7.00
2023-05-19T01:45:02.110Z,6.00
2023-05-19T01:45:35.193Z,6.30
2023-05-19T01:46:08.013Z,6.40
2023-05-19T01:46:41.123Z,6.80
2023-05-19T01:47:14.113Z,7.30
2023-05-19T01:47:48.846Z,7.00
2023-05-19T01:48:21.234Z,6.80
2023-05-19T01:48:53.838Z,6.30
2023-05-19T01:49:25.895Z,7.60
2023-05-19T01:49:57.834Z,6.60
2023-05-19T01:50:30.987Z,7.80
2023-05-19T01:51:03.096Z,7.60
2023-05-19T01:51:35.649Z,7.50
2023-05-19T01:52:07.588Z,7.20
2023-05-19T01:52:39.653Z,6.90
2023-05-19T01:53:11.682Z,7.30
2023-05-19T01:53:43.737Z,7.10
2023-05-19T01:54:15.992Z,7.50
2023-05-19T01:54:47.837Z,6.90
2023-05-19T01:55:22.433Z,7.60
2023-05-19T01:55:57.006Z,7.80
2023-05-19T01:56:52.886Z,7.40
2023-05-19T01:57:24.833Z,6.60
2023-05-19T01:58:19.299Z,7.30
2023-05-19T01:59:04.057Z,6.50
2023-05-19T02:00:08.270Z,6.50
2023-05-19T02:01:03.498Z,7.40
2023-05-19T02:02:11.859Z,7.50
2023-05-19T02:02:56.828Z,7.00
2023-05-19T02:03:47.706Z,7.70
2023-05-19T02:04:32.234Z,7.80
2023-05-19T02:05:17.313Z,7.40
2023-05-19T02:05:55.597Z,7.80
2023-05-19T02:06:31.038Z,7.30
2023-05-19T02:07:19.991Z,8.00
2023-05-19T02:08:13.230Z,7.40
2023-05-19T02:08:58.297Z,7.90
2023-05-19T02:09:47.957Z,7.10
2023-05-19T02:10:30.546Z,7.90
2023-05-19T02:11:30.348Z,7.90
2023-05-19T02:12:11.837Z,7.50
2023-05-19T02:12:45.719Z,8.00
2023-05-19T02:13:21.162Z,8.40
2023-05-19T02:13:56.479Z,8.50
2023-05-19T02:14:58.326Z,7.90
2023-05-19T02:15:38.144Z,8.10
2023-05-19T02:16:13.047Z,8.40
2023-05-19T02:16:47.378Z,8.60
2023-05-19T02:17:20.511Z,7.70
2023-05-19T02:17:54.786Z,8.00
2023-05-19T02:18:29.462Z,7.80
2023-05-19T02:19:01.482Z,7.50
2023-05-19T02:19:42.078Z,7.30
2023-05-19T02:20:15.680Z,7.40
2023-05-19T02:20:48.346Z,7.30
2023-05-19T02:21:20.409Z,7.60
2023-05-19T02:21:52.979Z,6.80
2023-05-19T02:22:25.818Z,7.30
2023-05-19T02:22:57.778Z,7.40
2023-05-19T02:23:30.946Z,7.10
2023-05-19T02:24:03.631Z,7.50
2023-05-19T02:24:37.320Z,7.60
2023-05-19T02:25:10.185Z,7.30
2023-05-19T02:25:42.455Z,6.80
2023-05-19T02:26:14.583Z,7.00
2023-05-19T02:26:46.631Z,7.30
2023-05-19T02:27:18.797Z,7.20
2023-05-19T02:27:51.046Z,7.30
2023-05-19T02:28:23.205Z,7.50
2023-05-19T02:28:55.464Z,7.40
2023-05-19T02:29:27.607Z,7.30
2023-05-19T02:29:59.698Z,8.20
2023-05-19T02:30:31.885Z,7.80
2023-05-19T02:31:08.696Z,8.50
2023-05-19T02:31:40.796Z,8.50
2023-05-19T02:32:13.141Z,8.60
2023-05-19T02:32:46.425Z,9.10
2023-05-19T02:33:19.136Z,9.80
2023-05-19T02:33:51.010Z,8.40
2023-05-19T02:34:22.953Z,8.60
2023-05-19T02:34:56.213Z,8.60
2023-05-19T02:35:28.174Z,8.60
2023-05-19T02:36:00.335Z,9.30
2023-05-19T02:36:36.979Z,8.40
2023-05-19T02:37:09.032Z,8.50
2023-05-19T02:37:41.055Z,9.40
2023-05-19T02:38:13.042Z,8.70
2023-05-19T02:38:45.508Z,8.60
2023-05-19T02:39:17.752Z,8.30
2023-05-19T02:39:50.113Z,8.80
2023-05-19T02:40:22.472Z,8.70
2023-05-19T02:40:54.342Z,8.20
2023-05-19T02:41:26.474Z,9.00
2023-05-19T02:41:58.514Z,8.20
2023-05-19T02:42:31.102Z,8.90
2023-05-19T02:43:03.223Z,8.70
2023-05-19T02:43:35.242Z,7.90
2023-05-19T02:44:07.359Z,9.20
2023-05-19T02:44:39.201Z,8.50
2023-05-19T02:45:11.651Z,8.80
2023-05-19T02:45:43.802Z,8.30
2023-05-19T02:46:15.889Z,7.90
2023-05-19T02:46:47.958Z,8.10
2023-05-19T02:47:20.139Z,7.90
2023-05-19T02:47:52.132Z,7.90
2023-05-19T02:48:24.165Z,8.30
2023-05-19T02:48:56.114Z,7.90
2023-05-19T02:49:30.627Z,8.70
2023-05-19T02:50:03.189Z,8.20
2023-05-19T02:50:35.138Z,8.00
2023-05-19T02:51:07.188Z,7.10
2023-05-19T02:51:39.204Z,7.30
2023-05-19T02:52:11.812Z,7.60
2023-05-19T02:52:43.857Z,7.90
2023-05-19T02:53:15.808Z,7.20
2023-05-19T02:53:48.016Z,7.70
2023-05-19T02:54:20.226Z,7.20
2023-05-19T02:54:52.274Z,8.00
2023-05-19T02:55:24.320Z,7.40
2023-05-19T02:55:56.389Z,7.80
2023-05-19T02:56:28.441Z,8.50
2023-05-19T02:57:01.190Z,7.60
2023-05-19T02:57:35.023Z,7.70
2023-05-19T02:58:07.237Z,7.60
2023-05-19T02:58:39.292Z,8.10
2023-05-19T02:59:11.422Z,8.20
2023-05-19T02:59:43.829Z,7.40
2023-05-19T03:00:16.226Z,8.10
2023-05-19T03:00:48.112Z,7.10
2023-05-19T03:01:21.837Z,7.00
2023-05-19T03:02:01.308Z,6.80
2023-05-19T03:02:33.871Z,7.20
2023-05-19T03:03:06.183Z,6.80
2023-05-19T03:03:38.452Z,7.30
2023-05-19T03:04:11.026Z,7.00
2023-05-19T03:04:43.740Z,6.60
2023-05-19T03:05:15.896Z,7.10
2023-05-19T03:05:48.288Z,6.70
2023-05-19T03:06:22.865Z,6.60
2023-05-19T03:06:55.335Z,6.40
2023-05-19T03:07:27.487Z,6.40
2023-05-19T03:07:59.501Z,6.60
2023-05-19T03:08:31.686Z,7.40
2023-05-19T03:09:03.752Z,6.70
2023-05-19T03:09:37.402Z,6.40
2023-05-19T03:10:09.718Z,7.20
2023-05-19T03:10:41.771Z,6.40
2023-05-19T03:11:15.127Z,7.10
2023-05-19T03:11:47.175Z,6.60
2023-05-19T03:12:19.211Z,6.90
2023-05-19T03:12:51.385Z,6.40
2023-05-19T03:13:23.536Z,6.00
2023-05-19T03:13:55.782Z,6.00
2023-05-19T03:14:27.842Z,6.00
2023-05-19T03:15:00.871Z,6.20
2023-05-19T03:15:34.004Z,5.50
2023-05-19T03:16:07.845Z,6.90
2023-05-19T03:16:42.888Z,6.00
2023-05-19T03:17:14.912Z,5.70
2023-05-19T03:17:46.936Z,6.50
2023-05-19T03:18:19.186Z,6.70
2023-05-19T03:18:51.974Z,5.80
2023-05-19T03:19:24.170Z,5.90
2023-05-19T03:19:56.245Z,5.80
2023-05-19T03:20:30.233Z,6.40
2023-05-19T03:21:02.819Z,6.30
2023-05-19T03:21:35.189Z,6.00
2023-05-19T03:22:07.216Z,6.20
2023-05-19T03:22:39.111Z,6.10
2023-05-19T03:23:11.136Z,5.70
2023-05-19T03:23:43.385Z,6.30
2023-05-19T03:24:16.032Z,5.80
2023-05-19T03:24:50.761Z,6.10
2023-05-19T03:25:22.968Z,6.30
2023-05-19T03:25:55.894Z,5.50
2023-05-19T03:26:29.070Z,6.10
2023-05-19T03:27:02.175Z,5.20
2023-05-19T03:27:34.633Z,6.00
2023-05-19T03:28:06.763Z,5.80
2023-05-19T03:28:38.899Z,5.90
2023-05-19T03:29:11.156Z,5.70
2023-05-19T03:29:43.167Z,5.70
2023-05-19T03:30:15.353Z,5.40
2023-05-19T03:30:49.977Z,5.40
2023-05-19T03:31:22.140Z,5.10
2023-05-19T03:31:54.386Z,5.50
2023-05-19T03:32:26.718Z,5.60
2023-05-19T03:33:01.316Z,5.50
2023-05-19T03:33:33.654Z,5.50
2023-05-19T03:34:05.787Z,6.00
2023-05-19T03:34:37.735Z,6.20
2023-05-19T03:35:09.678Z,5.60
2023-05-19T03:35:42.044Z,6.50
2023-05-19T03:36:14.187Z,6.00
2023-05-19T03:36:46.433Z,5.50
2023-05-19T03:37:18.397Z,5.20
2023-05-19T03:37:50.648Z,6.00
2023-05-19T03:38:23.122Z,5.70
2023-05-19T03:38:55.159Z,5.90
2023-05-19T03:39:27.098Z,6.10
2023-05-19T03:39:59.873Z,6.00
2023-05-19T03:40:32.046Z,5.60
2023-05-19T03:41:04.399Z,5.40
2023-05-19T03:41:36.782Z,5.90
2023-05-19T03:42:08.915Z,5.50
2023-05-19T03:42:40.953Z,6.90
2023-05-19T03:43:13.105Z,5.20
2023-05-19T03:43:45.630Z,5.40
2023-05-19T03:44:17.936Z,5.70
2023-05-19T03:44:50.411Z,5.10
2023-05-19T03:45:22.452Z,5.40
2023-05-19T03:45:54.549Z,5.10
2023-05-19T03:46:26.864Z,5.40
2023-05-19T03:46:59.219Z,4.90
2023-05-19T03:47:31.452Z,5.00
2023-05-19T03:48:04.408Z,5.30
2023-05-19T03:48:36.487Z,5.10
2023-05-19T03:49:08.452Z,5.70
2023-05-19T03:49:40.486Z,5.20
2023-05-19T03:50:13.568Z,5.40
2023-05-19T03:50:45.662Z,5.00
2023-05-19T03:51:17.894Z,5.50
2023-05-19T03:51:50.127Z,5.30
2023-05-19T03:52:22.392Z,5.30
2023-05-19T03:52:54.847Z,5.80
2023-05-19T03:53:26.810Z,5.40
2023-05-19T03:53:58.873Z,6.10
2023-05-19T03:54:31.411Z,5.50
2023-05-19T03:55:04.094Z,5.00
2023-05-19T03:55:36.942Z,5.20
2023-05-19T03:56:13.309Z,5.40
2023-05-19T03:56:45.763Z,5.10
2023-05-19T03:57:17.930Z,4.80
2023-05-19T03:57:49.876Z,5.10
2023-05-19T03:58:21.916Z,4.60
2023-05-19T03:58:54.600Z,4.50
2023-05-19T03:59:26.654Z,4.50
2023-05-19T03:59:59.507Z,4.40
2023-05-19T04:00:32.029Z,4.00
2023-05-19T04:01:04.833Z,4.90
2023-05-19T04:01:36.758Z,4.20
2023-05-19T04:02:08.837Z,4.10
2023-05-19T04:02:41.048Z,4.40
2023-05-19T04:03:13.896Z,4.30
2023-05-19T04:03:46.222Z,4.70
2023-05-19T04:04:18.508Z,4.50
2023-05-19T04:04:50.859Z,4.80
2023-05-19T04:05:22.996Z,4.50
2023-05-19T04:05:55.349Z,4.40
2023-05-19T04:06:27.605Z,5.20
2023-05-19T04:06:59.556Z,4.30
2023-05-19T04:07:31.625Z,4.20
2023-05-19T04:08:03.764Z,5.00
2023-05-19T04:08:36.128Z,4.50
2023-05-19T04:09:15.748Z,4.20
2023-05-19T04:09:48.419Z,4.50
2023-05-19T04:10:21.390Z,4.70
2023-05-19T04:10:53.854Z,5.20
2023-05-19T04:11:26.101Z,4.90
2023-05-19T04:11:58.483Z,5.00
2023-05-19T04:12:31.557Z,5.00
2023-05-19T04:13:03.705Z,5.30
2023-05-19T04:13:35.974Z,5.60
2023-05-19T04:14:08.831Z,5.20
2023-05-19T04:14:41.196Z,5.30
2023-05-19T04:15:13.548Z,5.10
2023-05-19T04:15:45.706Z,4.70
2023-05-19T04:16:18.304Z,5.90
2023-05-19T04:16:50.629Z,4.30
2023-05-19T04:17:26.099Z,4.80
2023-05-19T04:17:58.443Z,5.30
2023-05-19T04:18:31.195Z,6.20
2023-05-19T04:19:03.493Z,5.40
2023-05-19T04:19:35.402Z,5.60
2023-05-19T04:20:07.862Z,5.70
2023-05-19T04:20:40.304Z,5.50
2023-05-19T04:21:12.370Z,5.50
2023-05-19T04:21:44.387Z,5.10
2023-05-19T04:22:16.467Z,5.10
2023-05-19T04:22:48.720Z,5.30
2023-05-19T04:23:20.898Z,5.20
2023-05-19T04:23:53.336Z,5.00
2023-05-19T04:24:25.794Z,5.40
2023-05-19T04:24:58.047Z,5.50
2023-05-19T04:25:30.629Z,5.60
2023-05-19T04:26:03.379Z,5.60
2023-05-19T04:26:37.545Z,5.90
2023-05-19T04:27:11.680Z,5.50
2023-05-19T04:27:43.643Z,5.80
2023-05-19T04:28:16.108Z,5.90
2023-05-19T04:28:48.757Z,6.50
2023-05-19T04:29:23.185Z,6.60
2023-05-19T04:29:55.841Z,6.50
2023-05-19T04:30:28.297Z,5.20
2023-05-19T04:31:00.895Z,5.50
2023-05-19T04:31:34.082Z,5.80
2023-05-19T04:32:07.316Z,5.40
2023-05-19T04:32:41.029Z,4.80
2023-05-19T04:33:13.556Z,5.60
2023-05-19T04:33:47.062Z,5.20
2023-05-19T04:34:19.516Z,4.90
2023-05-19T04:34:52.082Z,5.10
2023-05-19T04:35:24.661Z,5.50
2023-05-19T04:35:58.031Z,4.90
2023-05-19T04:36:31.001Z,4.80
2023-05-19T04:37:03.985Z,5.00
2023-05-19T04:37:37.556Z,5.10
2023-05-19T04:38:09.723Z,4.60
2023-05-19T04:38:41.578Z,5.20
2023-05-19T04:39:14.021Z,4.80
2023-05-19T04:39:45.941Z,5.10
2023-05-19T04:40:20.801Z,4.40
2023-05-19T04:40:52.843Z,4.60
2023-05-19T04:41:24.823Z,4.90
2023-05-19T04:41:56.830Z,5.10
2023-05-19T04:42:30.330Z,4.70
2023-05-19T04:43:02.348Z,4.40
2023-05-19T04:43:34.553Z,4.90
2023-05-19T04:44:09.687Z,4.70
2023-05-19T04:44:41.725Z,4.60
2023-05-19T04:45:14.582Z,4.90
2023-05-19T04:45:49.910Z,4.40
2023-05-19T04:46:24.239Z,4.40
2023-05-19T04:46:58.162Z,4.10
2023-05-19T04:47:30.257Z,4.80
2023-05-19T04:48:02.374Z,4.20
2023-05-19T04:48:34.478Z,4.00
2023-05-19T04:49:07.408Z,4.20
2023-05-19T04:49:39.362Z,4.10
2023-05-19T04:50:11.359Z,4.30
2023-05-19T04:50:43.396Z,4.40
2023-05-19T04:51:17.393Z,4.40
2023-05-19T04:51:53.272Z,4.90
2023-05-19T04:52:27.541Z,4.30
2023-05-19T04:52:59.481Z,4.40
2023-05-19T04:53:31.534Z,4.20
2023-05-19T04:54:03.610Z,4.90
2023-05-19T04:54:35.641Z,4.70
2023-05-19T04:55:08.308Z,4.50
2023-05-19T04:55:40.567Z,4.60
2023-05-19T04:56:14.871Z,5.10
2023-05-19T04:56:46.944Z,4.70
2023-05-19T04:57:18.942Z,4.60
2023-05-19T04:57:51.129Z,4.60
2023-05-19T04:58:26.075Z,4.40
2023-05-19T04:58:58.142Z,5.20
2023-05-19T04:59:30.896Z,4.30
2023-05-19T05:00:07.541Z,3.80
2023-05-19T05:00:39.506Z,4.70
2023-05-19T05:01:13.593Z,4.30
2023-05-19T05:01:45.670Z,4.70
2023-05-19T05:02:17.733Z,4.30
2023-05-19T05:02:50.458Z,4.40
2023-05-19T05:03:22.780Z,4.60
2023-05-19T05:03:55.426Z,4.70
2023-05-19T05:04:28.024Z,4.40
2023-05-19T05:05:00.294Z,4.90
2023-05-19T05:05:32.649Z,4.30
2023-05-19T05:06:06.248Z,4.50
2023-05-19T05:06:38.202Z,4.20
2023-05-19T05:07:10.468Z,4.10
2023-05-19T05:07:42.917Z,4.10
2023-05-19T05:08:21.416Z,4.40
2023-05-19T05:08:53.459Z,4.30
2023-05-19T05:09:25.716Z,4.30
2023-05-19T05:09:57.675Z,4.10
2023-05-19T05:10:30.121Z,4.10
2023-05-19T05:11:02.692Z,4.60
2023-05-19T05:11:35.225Z,4.60
2023-05-19T05:12:08.169Z,4.40
2023-05-19T05:12:41.170Z,4.50
2023-05-19T05:13:13.545Z,4.60
2023-05-19T05:13:45.918Z,4.70
2023-05-19T05:14:18.169Z,4.40
2023-05-19T05:14:50.945Z,4.70
2023-05-19T05:15:23.917Z,4.10
2023-05-19T05:15:56.347Z,4.80
2023-05-19T05:16:28.873Z,4.50
2023-05-19T05:17:02.318Z,4.30
2023-05-19T05:17:35.451Z,4.90
2023-05-19T05:18:08.383Z,4.60
2023-05-19T05:18:42.200Z,4.70
2023-05-19T05:19:16.695Z,4.60
2023-05-19T05:19:49.441Z,4.40
2023-05-19T05:20:22.175Z,4.40
2023-05-19T05:20:54.469Z,4.70
2023-05-19T05:21:27.647Z,4.70
2023-05-19T05:22:00.201Z,5.00
2023-05-19T05:22:33.281Z,4.60
2023-05-19T05:23:06.474Z,5.00
2023-05-19T05:23:38.832Z,4.20
2023-05-19T05:24:11.682Z,5.10
2023-05-19T05:24:44.312Z,4.50
2023-05-19T05:25:17.570Z,4.60
2023-05-19T05:25:49.984Z,4.70
2023-05-19T05:26:22.878Z,4.40
2023-05-19T05:26:55.136Z,4.50
2023-05-19T05:27:27.688Z,5.30
2023-05-19T05:28:04.648Z,4.70
2023-05-19T05:28:37.420Z,5.10
2023-05-19T05:29:10.189Z,4.40
2023-05-19T05:29:42.349Z,4.70
2023-05-19T05:30:14.386Z,4.20
2023-05-19T05:30:47.209Z,4.50
2023-05-19T05:31:19.185Z,4.70
2023-05-19T05:31:51.466Z,5.20
2023-05-19T05:32:23.533Z,4.80
2023-05-19T05:32:56.010Z,4.80
2023-05-19T05:33:28.380Z,4.60
2023-05-19T05:34:00.650Z,4.60
2023-05-19T05:34:32.968Z,4.70
2023-05-19T05:35:05.599Z,4.20
2023-05-19T05:35:37.627Z,4.60
2023-05-19T05:36:09.840Z,4.50
2023-05-19T05:36:42.104Z,4.20
2023-05-19T05:37:15.464Z,4.50
2023-05-19T05:37:47.718Z,4.40
2023-05-19T05:38:19.797Z,3.90
2023-05-19T05:38:51.822Z,4.10
2023-05-19T05:39:23.903Z,4.40
2023-05-19T05:39:56.572Z,4.60
2023-05-19T05:40:28.602Z,5.00
2023-05-19T05:41:02.410Z,4.20
2023-05-19T05:41:38.048Z,4.90
2023-05-19T05:42:11.008Z,4.60
2023-05-19T05:42:43.251Z,3.60
2023-05-19T05:43:15.428Z,4.50
2023-05-19T05:43:47.462Z,4.10
2023-05-19T05:44:19.551Z,4.30
2023-05-19T05:44:51.969Z,4.30
2023-05-19T05:45:24.338Z,4.50
2023-05-19T05:45:57.391Z,4.60
2023-05-19T05:46:29.927Z,4.50
2023-05-19T05:47:03.371Z,4.30
2023-05-19T05:47:39.299Z,4.60
2023-05-19T05:48:11.771Z,4.70
2023-05-19T05:48:44.338Z,4.30
2023-05-19T05:49:16.693Z,4.40
2023-05-19T05:49:49.910Z,4.50
2023-05-19T05:50:23.608Z,4.30
2023-05-19T05:50:57.678Z,4.50
2023-05-19T05:51:32.480Z,4.40
2023-05-19T05:52:06.783Z,5.20
2023-05-19T05:52:41.328Z,4.60
2023-05-19T05:53:19.091Z,5.00
2023-05-19T05:53:55.330Z,4.70
2023-05-19T05:54:27.987Z,4.80
2023-05-19T05:55:01.185Z,4.10
2023-05-19T05:55:33.894Z,4.30
2023-05-19T05:56:07.833Z,4.80
2023-05-19T05:56:40.911Z,4.50
2023-05-19T05:57:13.220Z,5.20
2023-05-19T05:57:45.286Z,4.90
2023-05-19T05:58:17.477Z,4.20
2023-05-19T05:58:50.244Z,4.90
2023-05-19T05:59:22.641Z,4.60
2023-05-19T05:59:55.161Z,4.10
2023-05-19T06:00:28.026Z,4.50
2023-05-19T06:01:02.038Z,4.60
2023-05-19T06:01:35.843Z,4.20
2023-05-19T06:02:08.290Z,4.40
2023-05-19T06:02:43.089Z,4.70
2023-05-19T06:03:16.532Z,4.30
2023-05-19T06:03:48.691Z,4.60
2023-05-19T06:04:20.700Z,4.50
2023-05-19T06:04:54.073Z,4.50
2023-05-19T06:05:26.414Z,4.20
2023-05-19T06:05:58.644Z,4.20
2023-05-19T06:06:31.197Z,4.30
2023-05-19T06:07:03.510Z,4.10
2023-05-19T06:07:35.392Z,4.50
2023-05-19T06:08:07.406Z,4.30
2023-05-19T06:08:39.363Z,4.50
2023-05-19T06:09:12.150Z,4.00
2023-05-19T06:09:44.223Z,4.30
2023-05-19T06:10:16.532Z,3.70
2023-05-19T06:10:48.721Z,4.10
2023-05-19T06:11:20.937Z,4.00
2023-05-19T06:11:53.211Z,4.10
2023-05-19T06:12:26.800Z,4.10
2023-05-19T06:12:58.743Z,4.20
2023-05-19T06:13:30.811Z,3.70
2023-05-19T06:14:03.284Z,4.40
2023-05-19T06:14:35.300Z,4.20
2023-05-19T06:15:07.764Z,4.30
2023-05-19T06:15:39.798Z,4.20
2023-05-19T06:16:11.806Z,4.30
2023-05-19T06:16:44.230Z,4.00
2023-05-19T06:17:16.694Z,4.60
2023-05-19T06:17:48.915Z,4.80
2023-05-19T06:18:21.214Z,4.70
2023-05-19T06:18:53.399Z,4.30
2023-05-19T06:19:25.601Z,4.30
2023-05-19T06:19:57.775Z,4.60
2023-05-19T06:20:29.904Z,4.40
2023-05-19T06:21:03.024Z,4.90
2023-05-19T06:21:35.070Z,4.10
2023-05-19T06:22:07.097Z,5.00
2023-05-19T06:22:39.660Z,3.80
2023-05-19T06:23:11.525Z,3.90
2023-05-19T06:23:43.359Z,4.50
2023-05-19T06:24:15.407Z,4.70
2023-05-19T06:24:48.174Z,4.90
2023-05-19T06:25:20.336Z,4.40
2023-05-19T06:25:52.606Z,4.50
2023-05-19T06:26:24.752Z,4.60
2023-05-19T06:26:56.826Z,4.30
2023-05-19T06:27:28.785Z,5.50
2023-05-19T06:28:01.016Z,5.10
2023-05-19T06:28:34.891Z,5.20
2023-05-19T06:29:06.946Z,5.40
2023-05-19T06:29:39.112Z,5.40
2023-05-19T06:30:11.984Z,5.10
2023-05-19T06:30:44.131Z,5.40
2023-05-19T06:31:16.116Z,5.60
2023-05-19T06:31:48.436Z,5.60
2023-05-19T06:32:20.721Z,5.40
2023-05-19T06:32:53.003Z,5.60
2023-05-19T06:33:28.844Z,4.90
2023-05-19T06:34:01.147Z,5.30
2023-05-19T06:34:33.192Z,6.10
2023-05-19T06:35:05.877Z,6.00
2023-05-19T06:35:38.350Z,6.40
2023-05-19T06:36:10.557Z,6.50
2023-05-19T06:36:42.529Z,5.90
2023-05-19T06:37:16.683Z,5.60
2023-05-19T06:37:48.589Z,5.60
2023-05-19T06:38:21.037Z,5.60
2023-05-19T06:38:53.191Z,6.40
2023-05-19T06:39:25.965Z,5.80
2023-05-19T06:39:58.020Z,6.80
2023-05-19T06:40:30.504Z,7.30
2023-05-19T06:41:02.770Z,6.20
2023-05-19T06:41:35.010Z,7.20
2023-05-19T06:42:07.223Z,6.90
2023-05-19T06:42:39.322Z,6.60
2023-05-19T06:43:11.398Z,6.50
2023-05-19T06:43:43.599Z,7.20
2023-05-19T06:44:15.762Z,7.00
2023-05-19T06:44:49.270Z,7.10
2023-05-19T06:45:22.212Z,6.60
2023-05-19T06:45:54.480Z,6.90
2023-05-19T06:46:26.659Z,6.90
2023-05-19T06:46:59.134Z,7.80
2023-05-19T06:47:31.299Z,7.20
2023-05-19T06:48:03.989Z,7.30
2023-05-19T06:48:35.878Z,7.30
2023-05-19T06:49:08.234Z,7.20
2023-05-19T06:49:40.387Z,7.30
2023-05-19T06:50:12.327Z,7.70
2023-05-19T06:50:44.910Z,8.30
2023-05-19T06:51:21.787Z,7.80
2023-05-19T06:51:53.862Z,7.60
2023-05-19T06:52:25.758Z,7.80
2023-05-19T06:52:58.014Z,7.40
2023-05-19T06:53:31.078Z,8.00
2023-05-19T06:54:03.210Z,7.70
2023-05-19T06:54:35.505Z,7.20
2023-05-19T06:55:07.963Z,7.60
2023-05-19T06:55:54.402Z,8.20
2023-05-19T06:56:30.604Z,6.90
2023-05-19T06:57:04.077Z,6.40
2023-05-19T06:57:36.188Z,7.10
2023-05-19T06:58:08.295Z,6.60
2023-05-19T06:58:40.448Z,7.30
2023-05-19T06:59:12.638Z,7.00
2023-05-19T06:59:46.179Z,7.40
2023-05-19T07:00:20.518Z,7.50
2023-05-19T07:00:54.176Z,7.70
2023-05-19T07:01:27.413Z,6.60
2023-05-19T07:01:59.711Z,7.30
2023-05-19T07:02:32.000Z,7.50
2023-05-19T07:03:04.220Z,6.40
2023-05-19T07:03:36.796Z,7.90
2023-05-19T07:04:08.992Z,7.60
2023-05-19T07:04:42.201Z,7.50
2023-05-19T07:05:14.199Z,7.30
2023-05-19T07:05:46.456Z,7.20
2023-05-19T07:06:18.531Z,7.50
2023-05-19T07:06:50.853Z,7.70
2023-05-19T07:07:22.910Z,6.10
2023-05-19T07:07:55.770Z,6.20
2023-05-19T07:08:28.036Z,6.40
2023-05-19T07:09:00.280Z,6.60
2023-05-19T07:09:33.125Z,6.70
2023-05-19T07:10:06.019Z,7.20
2023-05-19T07:10:38.597Z,6.90
2023-05-19T07:11:12.030Z,6.40
2023-05-19T07:11:43.818Z,6.00
2023-05-19T07:12:15.778Z,6.40
2023-05-19T07:12:47.823Z,6.10
2023-05-19T07:13:20.175Z,5.20
2023-05-19T07:13:52.222Z,5.70
2023-05-19T07:14:24.743Z,5.90
2023-05-19T07:14:56.847Z,5.30
2023-05-19T07:15:28.692Z,5.90
2023-05-19T07:16:00.621Z,5.30
2023-05-19T07:16:32.982Z,4.90
2023-05-19T07:17:04.886Z,6.00
2023-05-19T07:17:36.807Z,5.20
2023-05-19T07:18:08.725Z,4.90
2023-05-19T07:18:40.591Z,5.20
2023-05-19T07:19:13.185Z,4.80
2023-05-19T07:19:45.133Z,5.20
2023-05-19T07:20:16.919Z,4.80
2023-05-19T07:20:48.825Z,4.70
2023-05-19T07:21:20.683Z,5.40
2023-05-19T07:21:52.653Z,5.40
2023-05-19T07:22:24.518Z,5.60
2023-05-19T07:22:56.314Z,5.60
2023-05-19T07:23:28.164Z,5.40
2023-05-19T07:23:59.949Z,5.00
2023-05-19T07:24:31.851Z,5.10
2023-05-19T07:25:03.993Z,5.60
2023-05-19T07:25:35.949Z,5.30
2023-05-19T07:26:07.830Z,5.20
2023-05-19T07:26:40.968Z,4.90
2023-05-19T07:27:12.907Z,5.20
2023-05-19T07:27:45.663Z,5.80